Time;durP1;ratioP1;P1;durP2;ratioP2;P2;SDS_P1;SDS_P2;PMS_P1;PMS_P2;Temp;Humidity;BMP_temperature;BMP_pressure;BME280_temperature;BME280_humidity;BME280_pressure;Samples;Min_cycle;Max_cycle;Signal;HPM_P1;HPM_P2
2021/11/30 00:01:46;;;;;;;6.93;4.83;;;;;;;3.92;65.75;97828.73;1663737;85;20999;-68
2021/11/30 00:04:16;;;;;;;6.23;5.10;;;;;;;3.91;65.83;97823.98;1652598;85;21081;-69
2021/11/30 00:06:44;;;;;;;5.60;5.10;;;;;;;3.90;65.94;97832.91;1635500;85;21101;-70
2021/11/30 00:11:53;;;;;;;6.63;5.93;;;;;;;3.88;66.32;97838.88;1590104;87;21093;-69
2021/11/30 00:14:19;;;;;;;7.90;6.08;;;;;;;3.86;66.45;97835.16;1645802;85;21010;-69
2021/11/30 00:16:46;;;;;;;5.10;4.60;;;;;;;3.88;66.40;97840.19;1649678;85;21013;-68
2021/11/30 00:19:13;;;;;;;5.80;5.30;;;;;;;3.97;66.30;97840.27;1649739;85;21039;-75
2021/11/30 00:21:40;;;;;;;;;;;;;;;4.03;66.26;97846.55;1645809;85;21030;-70
2021/11/30 00:24:06;;;;;;;5.87;5.00;;;;;;;4.00;66.04;97854.37;1641613;85;20185;-69
2021/11/30 00:26:34;;;;;;;5.10;4.60;;;;;;;3.91;66.01;97850.33;1643941;85;21066;-71
2021/11/30 00:29:01;;;;;;;5.40;4.90;;;;;;;3.90;66.03;97864.02;1634438;85;21054;-68
2021/11/30 00:31:28;;;;;;;5.30;4.80;;;;;;;3.90;66.15;97857.95;1650412;85;21037;-69
2021/11/30 00:33:55;;;;;;;;;;;;;;;3.91;66.31;97866.14;1652190;85;21084;-71
2021/11/30 00:36:21;;;;;;;5.70;4.40;;;;;;;3.94;66.24;97855.69;1645114;85;20194;-68
2021/11/30 00:38:48;;;;;;;;;;;;;;;3.84;65.59;97874.08;1646384;85;21104;-70
2021/11/30 00:41:14;;;;;;;6.17;5.30;;;;;;;3.82;66.06;97863.42;1637523;85;20133;-69
2021/11/30 00:43:41;;;;;;;4.57;4.13;;;;;;;3.79;66.22;97867.80;1640982;85;21153;-69
2021/11/30 00:46:20;;;;;;;;;;;;;;;3.83;66.12;97872.96;1650852;85;21548;-69
2021/11/30 00:48:45;;;;;;;5.17;4.67;;;;;;;3.89;65.84;97878.72;1633154;85;20158;-70
2021/11/30 00:51:17;;;;;;;6.47;3.67;;;;;;;3.97;65.82;97871.09;1651510;85;21007;-66
2021/11/30 00:53:46;;;;;;;5.50;4.13;;;;;;;3.95;65.88;97880.52;1640132;85;21579;-70
2021/11/30 00:56:14;;;;;;;5.50;4.50;;;;;;;3.93;65.89;97875.17;1641330;85;21015;-65
2021/11/30 00:58:42;;;;;;;5.83;4.23;;;;;;;3.92;66.06;97880.13;1649162;85;21190;-67
2021/11/30 01:01:09;;;;;;;5.10;4.63;;;;;;;3.88;66.09;97881.04;1641048;85;21024;-67
2021/11/30 01:03:36;;;;;;;5.53;4.13;;;;;;;3.88;66.28;97890.27;1657919;85;21057;-68
2021/11/30 01:06:03;;;;;;;4.70;4.40;;;;;;;3.88;66.33;97892.90;1649105;85;21007;-67
2021/11/30 01:08:29;;;;;;;;;;;;;;;3.87;66.54;97901.84;1654808;85;21133;-66
2021/11/30 01:10:56;;;;;;;4.80;4.23;;;;;;;3.85;66.39;97899.92;1655831;85;20201;-71
2021/11/30 01:13:24;;;;;;;3.63;3.43;;;;;;;3.89;66.39;97896.66;1652843;85;21004;-67
2021/11/30 01:15:51;;;;;;;4.03;3.70;;;;;;;4.01;66.08;97892.91;1656423;85;21096;-67
2021/11/30 01:18:18;;;;;;;4.53;4.13;;;;;;;4.05;66.01;97894.59;1656313;85;21059;-67
2021/11/30 01:20:45;;;;;;;4.35;4.00;;;;;;;4.07;66.11;97893.39;1653902;85;21054;-69
2021/11/30 01:23:11;;;;;;;;;;;;;;;4.06;65.91;97897.03;1673723;83;21007;-68
2021/11/30 01:25:39;;;;;;;4.65;3.58;;;;;;;4.03;65.79;97905.37;1674952;83;20117;-70
2021/11/30 01:28:06;;;;;;;4.10;3.80;;;;;;;3.97;66.00;97893.50;1673919;83;21049;-72
2021/11/30 01:30:33;;;;;;;4.13;3.83;;;;;;;3.95;65.71;97905.56;1696072;83;21062;-68
2021/11/30 01:33:00;;;;;;;4.10;3.80;;;;;;;3.94;65.99;97893.42;1697356;83;20987;-67
2021/11/30 01:35:27;;;;;;;4.00;3.70;;;;;;;3.95;66.14;97885.80;1687713;83;20999;-68
2021/11/30 01:37:53;;;;;;;3.13;2.80;;;;;;;3.99;66.18;97895.42;1677081;83;21060;-68
2021/11/30 01:40:22;;;;;;;;;;;;;;;3.99;65.65;97892.79;1689831;83;21050;-68
2021/11/30 01:42:51;;;;;;;3.20;3.00;;;;;;;4.05;65.69;97892.79;1671353;83;20416;-69
2021/11/30 01:45:32;;;;;;;3.70;3.07;;;;;;;4.08;65.42;97902.09;1687693;83;20994;-68
2021/11/30 01:49:08;;;;;;;3.77;3.40;;;;;;;4.02;65.18;97897.66;1675779;83;21009;-69
2021/11/30 01:50:27;;;;;;;3.10;2.90;;;;;;;4.00;65.39;97904.97;1686610;83;21011;-67
2021/11/30 01:52:53;;;;;;;3.70;3.40;;;;;;;3.96;64.90;97903.76;1673936;83;20985;-68
2021/11/30 01:55:20;;;;;;;;;;;;;;;3.95;65.17;97902.93;1686909;83;21022;-68
2021/11/30 01:57:49;;;;;;;3.37;3.17;;;;;;;3.93;64.79;97885.71;1692599;83;20402;-69
2021/11/30 02:00:17;;;;;;;3.20;3.00;;;;;;;3.85;64.75;97891.50;1683656;83;21036;-68
2021/11/30 02:02:45;;;;;;;3.13;2.83;;;;;;;3.81;64.93;97898.70;1685597;83;21156;-67
2021/11/30 02:05:12;;;;;;;3.07;2.77;;;;;;;3.80;65.09;97910.25;1687818;83;20982;-71
2021/11/30 02:07:40;;;;;;;4.87;3.03;;;;;;;3.79;64.71;97880.98;1678372;83;21050;-68
2021/11/30 02:10:10;;;;;;;3.30;3.10;;;;;;;3.78;64.97;97895.95;1685866;83;21000;-69
2021/11/30 02:12:39;;;;;;;4.30;2.73;;;;;;;3.80;64.96;97902.34;1682286;83;21560;-70
2021/11/30 02:15:10;;;;;;;2.17;1.90;;;;;;;3.78;65.07;97898.59;1681504;83;21543;-68
2021/11/30 02:17:38;;;;;;;6.30;3.23;;;;;;;3.85;64.40;97895.45;1692907;83;21030;-68
2021/11/30 02:20:08;;;;;;;2.77;2.57;;;;;;;3.92;64.52;97898.09;1684456;84;21066;-68
2021/11/30 02:22:37;;;;;;;2.90;2.67;;;;;;;3.90;64.62;97903.56;1683219;83;21073;-71
2021/11/30 02:25:05;;;;;;;6.13;2.17;;;;;;;3.87;64.84;97904.47;1679371;83;21468;-68
2021/11/30 02:27:32;;;;;;;2.83;2.53;;;;;;;3.80;65.01;97895.76;1670381;83;21038;-69
2021/11/30 02:29:59;;;;;;;;;;;;;;;3.73;65.79;97912.08;1691294;83;20998;-68
2021/11/30 02:32:25;;;;;;;4.37;3.77;;;;;;;3.72;66.19;97914.42;1687479;83;20139;-69
2021/11/30 02:34:53;;;;;;;5.00;3.53;;;;;;;3.64;66.68;97893.05;1698119;82;21549;-69
2021/11/30 02:37:24;;;;;;;3.85;3.08;;;;;;;3.60;66.76;97887.38;1695022;83;21063;-68
2021/11/30 02:39:49;;;;;;;3.47;3.17;;;;;;;3.65;66.83;97905.19;1685362;83;21041;-70
2021/11/30 02:42:15;;;;;;;3.57;3.27;;;;;;;3.74;66.75;97911.08;1686446;83;21063;-68
2021/11/30 02:44:43;;;;;;;3.60;3.30;;;;;;;3.76;66.79;97905.89;1698479;83;21097;-68
2021/11/30 02:47:12;;;;;;;3.03;2.80;;;;;;;3.74;66.76;97922.41;1694156;83;21013;-68
2021/11/30 02:49:41;;;;;;;3.17;2.87;;;;;;;3.68;66.97;97904.80;1676197;83;21048;-69
2021/11/30 02:52:17;;;;;;;6.10;3.97;;;;;;;3.68;66.57;97913.50;1689438;83;22116;-69
2021/11/30 02:54:47;;;;;;;3.73;3.27;;;;;;;3.67;66.44;97927.70;1681165;83;21075;-69
2021/11/30 02:57:17;;;;;;;5.47;4.23;;;;;;;3.64;66.35;97913.61;1686050;83;21033;-69
2021/11/30 02:59:48;;;;;;;4.83;4.33;;;;;;;3.64;66.40;97909.66;1696091;83;21114;-68
2021/11/30 03:02:23;;;;;;;4.37;4.07;;;;;;;3.62;66.56;97913.00;1696035;83;21113;-70
2021/11/30 03:04:53;;;;;;;7.47;6.10;;;;;;;3.61;66.33;97925.05;1683123;83;21085;-70
2021/11/30 03:07:25;;;;;;;5.97;3.53;;;;;;;3.70;66.02;97927.28;1681715;83;21044;-70
2021/11/30 03:09:53;;;;;;;8.47;7.00;;;;;;;3.73;65.72;97915.54;1686646;83;20982;-70
2021/11/30 03:12:21;;;;;;;6.60;5.37;;;;;;;3.71;65.72;97945.20;1686493;83;21001;-70
2021/11/30 03:14:48;;;;;;;5.57;4.37;;;;;;;3.69;66.09;97940.16;1679222;83;21006;-70
2021/11/30 03:17:16;;;;;;;3.87;3.57;;;;;;;3.67;66.17;97926.39;1682672;83;20994;-68
2021/11/30 03:19:43;;;;;;;4.27;3.87;;;;;;;3.66;66.04;97934.48;1696396;83;21045;-69
2021/11/30 03:22:11;;;;;;;5.77;4.00;;;;;;;3.60;66.17;97916.84;1681832;83;21028;-72
2021/11/30 03:24:38;;;;;;;6.07;4.97;;;;;;;3.62;66.41;97933.27;1687811;83;21136;-68
2021/11/30 03:27:04;;;;;;;;;;;;;;;3.60;66.53;97937.91;1694113;83;20991;-70
2021/11/30 03:29:31;;;;;;;10.23;7.50;;;;;;;3.66;66.53;97941.88;1696599;83;20481;-70
2021/11/30 03:32:13;;;;;;;;;;;;;;;3.68;66.29;97938.53;1681578;83;21074;-70
2021/11/30 03:34:38;;;;;;;4.37;3.97;;;;;;;3.66;66.36;97941.07;1688503;83;20145;-69
2021/11/30 03:37:07;;;;;;;5.03;4.53;;;;;;;3.58;66.64;97927.59;1690750;83;21114;-73
2021/11/30 03:39:36;;;;;;;5.10;4.60;;;;;;;3.48;66.88;97934.59;1680814;83;21513;-69
2021/11/30 03:42:03;;;;;;;5.57;5.10;;;;;;;3.55;66.92;97937.21;1693839;83;21087;-68
2021/11/30 03:44:31;;;;;;;5.50;3.87;;;;;;;3.56;66.81;97959.09;1680739;83;21081;-73
2021/11/30 03:46:59;;;;;;;6.25;5.22;;;;;;;3.49;66.95;97945.92;1665265;85;21002;-69
2021/11/30 03:49:27;;;;;;;6.00;5.37;;;;;;;3.54;66.74;97947.94;1682293;83;21055;-71
2021/11/30 03:51:56;;;;;;;5.33;4.87;;;;;;;3.64;66.59;97959.71;1696470;83;21021;-71
2021/11/30 03:54:24;;;;;;;4.73;4.33;;;;;;;3.67;66.45;97930.34;1696134;83;21099;-70
2021/11/30 03:56:51;;;;;;;4.73;4.27;;;;;;;3.65;66.43;97956.05;1676088;83;21041;-69
2021/11/30 03:59:18;;;;;;;4.97;3.70;;;;;;;3.58;66.77;97959.20;1681886;83;21088;-69
2021/11/30 04:01:45;;;;;;;5.28;4.78;;;;;;;3.57;66.91;97936.50;1673847;83;22347;-69
2021/11/30 04:04:26;;;;;;;8.10;6.97;;;;;;;3.54;66.73;97954.02;1668965;83;21082;-72
2021/11/30 04:06:54;;;;;;;10.80;7.60;;;;;;;3.48;66.89;97967.52;1688488;83;21182;-71
2021/11/30 04:09:23;;;;;;;6.50;5.60;;;;;;;3.47;66.86;97956.66;1668870;83;21087;-69
2021/11/30 04:11:50;;;;;;;5.00;4.50;;;;;;;3.50;67.06;97969.44;1677461;83;21482;-69
2021/11/30 04:14:18;;;;;;;9.23;5.40;;;;;;;3.56;66.57;97954.66;1693099;83;21042;-68
2021/11/30 04:16:44;;;;;;;4.70;4.30;;;;;;;3.54;66.50;97966.37;1682868;83;21067;-71
2021/11/30 04:19:12;;;;;;;5.23;4.57;;;;;;;3.53;66.72;97996.38;1687280;83;21081;-70
2021/11/30 04:21:39;;;;;;;4.70;4.30;;;;;;;3.54;66.43;97990.89;1686639;83;21534;-69
2021/11/30 04:24:06;;;;;;;6.03;5.17;;;;;;;3.54;66.37;97993.52;1690461;83;21120;-69
2021/11/30 04:26:32;;;;;;;6.67;4.47;;;;;;;3.52;66.10;98016.63;1688260;83;21094;-70
2021/11/30 04:28:59;;;;;;;6.80;6.07;;;;;;;3.50;66.13;98030.02;1685180;83;21533;-69
2021/11/30 04:31:27;;;;;;;4.90;3.73;;;;;;;3.51;66.25;98026.86;1683683;83;21026;-69
2021/11/30 04:33:53;;;;;;;5.50;5.00;;;;;;;3.53;66.14;98025.36;1695590;83;20997;-69
2021/11/30 04:36:20;;;;;;;5.70;5.12;;;;;;;3.58;66.12;98041.35;1689227;83;21027;-70
2021/11/30 04:38:47;;;;;;;5.27;4.77;;;;;;;3.59;66.14;98035.89;1674325;83;21097;-70
2021/11/30 04:41:14;;;;;;;4.20;3.80;;;;;;;3.61;65.94;98040.45;1673685;83;21108;-69
2021/11/30 04:43:40;;;;;;;;;;;;;;;3.75;65.95;98035.20;1681932;83;21061;-69
2021/11/30 04:46:17;;;;;;;5.43;4.47;;;;;;;3.81;65.83;98047.08;1689801;83;20134;-69
2021/11/30 04:48:51;;;;;;;5.37;4.87;;;;;;;3.75;66.01;98048.38;1681755;83;21048;-69
2021/11/30 04:51:12;;;;;;;9.23;5.97;;;;;;;3.75;66.34;98060.23;1686176;83;21030;-71
2021/11/30 04:53:42;;;;;;;9.03;6.40;;;;;;;3.74;66.26;98063.89;1680331;83;21162;-71
2021/11/30 04:56:08;;;;;;;6.00;5.43;;;;;;;3.68;66.39;98059.72;1701224;83;21057;-69
2021/11/30 04:58:35;;;;;;;5.30;4.80;;;;;;;3.65;66.52;98056.16;1677843;83;21596;-70
2021/11/30 05:01:01;;;;;;;5.17;4.78;;;;;;;3.62;66.57;98067.11;1676088;83;21043;-71
2021/11/30 05:03:28;;;;;;;6.43;5.60;;;;;;;3.60;66.98;98070.45;1654825;85;21552;-70
2021/11/30 05:05:54;;;;;;;;;;;;;;;3.58;66.75;98064.58;1681379;83;21014;-72
2021/11/30 05:08:23;;;;;;;5.60;5.10;;;;;;;3.65;66.55;98081.19;1674435;83;20102;-70
2021/11/30 05:10:50;;;;;;;6.62;6.00;;;;;;;3.68;66.41;98068.14;1689752;83;21106;-69
2021/11/30 05:13:18;;;;;;;7.80;5.13;;;;;;;3.68;66.29;98081.31;1682549;84;21021;-71
2021/11/30 05:15:46;;;;;;;5.65;4.22;;;;;;;3.65;65.92;98086.97;1679572;84;20965;-69
2021/11/30 05:18:13;;;;;;;4.73;4.07;;;;;;;3.65;65.75;98073.28;1652926;84;21088;-70
2021/11/30 05:20:39;;;;;;;3.67;3.37;;;;;;;3.63;65.21;98089.80;1667773;84;21533;-70
2021/11/30 05:23:06;;;;;;;4.83;4.30;;;;;;;3.63;64.77;98088.48;1660083;84;21052;-70
2021/11/30 05:25:37;;;;;;;3.85;3.55;;;;;;;3.61;64.76;98094.97;1623908;86;21109;-70
2021/11/30 05:28:05;;;;;;;4.30;3.53;;;;;;;3.62;64.88;98097.92;1665745;84;21501;-69
2021/11/30 05:30:36;;;;;;;4.13;3.73;;;;;;;3.65;64.79;98090.41;1674469;83;21035;-70
2021/11/30 05:33:06;;;;;;;7.23;3.43;;;;;;;3.66;64.36;98118.39;1634273;85;21022;-70
2021/11/30 05:35:34;;;;;;;3.87;3.47;;;;;;;3.69;64.26;98119.80;1668101;84;21043;-69
2021/11/30 05:38:02;;;;;;;;;;;;;;;3.71;64.05;98120.42;1693226;83;21029;-70
2021/11/30 05:40:29;;;;;;;4.33;3.10;;;;;;;3.69;63.91;98119.32;1691774;84;20157;-71
2021/11/30 05:42:56;;;;;;;3.67;3.37;;;;;;;3.58;63.44;98126.48;1679113;83;21029;-70
2021/11/30 05:45:22;;;;;;;;;;;;;;;3.57;63.64;98135.38;1629783;86;21479;-68
2021/11/30 05:47:48;;;;;;;3.90;3.50;;;;;;;3.58;63.93;98128.28;1601589;87;20137;-70
2021/11/30 05:50:16;;;;;;;3.87;3.47;;;;;;;3.51;64.28;98142.77;1605905;89;21594;-69
2021/11/30 05:52:44;;;;;;;;;;;;;;;3.53;64.28;98155.23;1606105;87;21038;-68
2021/11/30 05:55:11;;;;;;;;;;;;;;;3.54;64.24;98148.13;1604991;89;20278;-71
2021/11/30 05:57:39;;;;;;;4.20;3.80;;;;;;;3.40;64.52;98165.20;1628434;87;20219;-70
2021/11/30 06:00:10;;;;;;;4.73;3.87;;;;;;;3.45;63.76;98161.48;1600263;87;21083;-70
2021/11/30 06:02:54;;;;;;;5.53;4.00;;;;;;;3.49;63.67;98192.19;1619652;87;21199;-68
2021/11/30 06:05:08;;;;;;;3.53;2.90;;;;;;;3.51;63.43;98169.10;1643810;85;21091;-69
2021/11/30 06:07:35;;;;;;;5.23;2.17;;;;;;;3.52;63.06;98156.22;1635062;85;21085;-70
2021/11/30 06:10:02;;;;;;;1.27;1.17;;;;;;;3.56;61.71;98200.11;1636304;86;21072;-72
2021/11/30 06:12:28;;;;;;;1.63;1.00;;;;;;;3.55;60.75;98195.36;1635427;86;21055;-71
2021/11/30 06:14:56;;;;;;;2.67;1.13;;;;;;;3.52;59.65;98197.05;1634742;86;21581;-70
2021/11/30 06:17:22;;;;;;;3.15;1.00;;;;;;;3.54;58.97;98183.69;1637562;86;21079;-72
2021/11/30 06:19:49;;;;;;;0.82;0.60;;;;;;;3.50;58.93;98220.14;1630780;86;21737;-70
2021/11/30 06:22:16;;;;;;;1.20;0.60;;;;;;;3.51;58.66;98238.39;1628362;86;21055;-71
2021/11/30 06:24:43;;;;;;;2.53;0.63;;;;;;;3.50;58.73;98231.99;1641253;86;21098;-71
2021/11/30 06:27:09;;;;;;;;;;;;;;;3.50;58.53;98238.58;1642590;86;21163;-69
2021/11/30 06:29:36;;;;;;;1.80;1.40;;;;;;;3.50;58.03;98239.89;1631000;86;20143;-69
2021/11/30 06:32:04;;;;;;;2.20;0.93;;;;;;;3.47;58.35;98242.94;1627338;86;21049;-71
2021/11/30 06:34:32;;;;;;;4.63;1.27;;;;;;;3.45;58.43;98253.66;1632248;86;22211;-71
2021/11/30 06:37:00;;;;;;;2.40;0.60;;;;;;;3.47;58.59;98223.19;1630350;86;21018;-69
2021/11/30 06:39:26;;;;;;;0.70;0.70;;;;;;;3.49;58.07;98243.55;1631347;86;21042;-70
2021/11/30 06:41:53;;;;;;;;;;;;;;;3.49;58.26;98250.94;1632780;86;21419;-68
2021/11/30 06:44:20;;;;;;;2.37;1.37;;;;;;;3.49;58.05;98247.50;1636893;86;20156;-68
2021/11/30 06:46:46;;;;;;;3.87;1.62;;;;;;;3.44;58.54;98259.11;1635770;86;21066;-71
2021/11/30 06:49:14;;;;;;;2.50;1.60;;;;;;;3.44;58.63;98270.97;1632766;86;22887;-70
2021/11/30 06:51:41;;;;;;;2.57;1.83;;;;;;;3.45;58.61;98262.08;1624110;86;21065;-68
2021/11/30 06:54:08;;;;;;;0.50;0.50;;;;;;;3.41;58.22;98252.91;1632933;86;21545;-70
2021/11/30 06:56:35;;;;;;;0.70;0.60;;;;;;;3.40;58.32;98237.62;1634465;86;21022;-71
2021/11/30 06:59:02;;;;;;;3.20;0.50;;;;;;;3.41;57.70;98283.19;1603901;86;21064;-71
2021/11/30 07:01:31;;;;;;;;;;;;;;;3.39;57.60;98266.30;1636408;86;21068;-69
2021/11/30 07:04:00;;;;;;;0.60;0.20;;;;;;;3.38;57.34;98262.02;1635828;86;20150;-69
2021/11/30 07:09:14;;;;;;;0.83;0.50;;;;;;;3.27;57.44;98269.13;1587099;87;21156;-69
2021/11/30 07:16:49;;;;;;;0.50;0.33;;;;;;;3.35;56.88;98233.94;1797918;78;22909;-71
2021/11/30 07:19:16;;;;;;;0.40;0.40;;;;;;;3.30;56.37;98255.59;1771121;80;21462;-72
2021/11/30 07:21:44;;;;;;;6.85;0.53;;;;;;;3.30;55.95;98254.28;1775424;80;20963;-72
2021/11/30 07:24:11;;;;;;;0.80;0.27;;;;;;;3.31;55.99;98242.72;1762398;80;21487;-69
2021/11/30 07:26:37;;;;;;;2.23;0.43;;;;;;;3.36;55.81;98247.42;1749655;80;21532;-70
2021/11/30 07:29:04;;;;;;;0.70;0.40;;;;;;;3.39;55.75;98254.44;1761065;80;22110;-71
2021/11/30 07:31:34;;;;;;;1.87;0.33;;;;;;;3.43;55.77;98257.50;1755007;80;21037;-70
2021/11/30 07:34:01;;;;;;;2.83;0.87;;;;;;;3.46;55.45;98251.32;1676158;83;21101;-73
2021/11/30 07:36:28;;;;;;;;;;;;;;;3.49;55.75;98255.41;1682516;84;21025;-73
2021/11/30 07:38:55;;;;;;;1.15;0.80;;;;;;;3.56;55.71;98256.27;1683292;84;20812;-72
2021/11/30 07:41:23;;;;;;;0.30;0.30;;;;;;;3.50;54.70;98249.95;1674074;84;21533;-71
2021/11/30 07:43:50;;;;;;;0.50;0.40;;;;;;;3.50;54.98;98260.97;1673213;84;21044;-73
2021/11/30 07:46:17;;;;;;;2.27;0.50;;;;;;;3.50;55.06;98274.97;1669697;84;21049;-71
2021/11/30 07:48:44;;;;;;;10.43;0.50;;;;;;;3.53;54.67;98270.32;1672729;84;22213;-70
2021/11/30 07:51:15;;;;;;;2.55;0.50;;;;;;;3.54;54.33;98254.30;1673419;84;21070;-71
2021/11/30 07:53:41;;;;;;;4.30;0.40;;;;;;;3.57;53.89;98273.68;1695977;83;21050;-70
2021/11/30 07:56:08;;;;;;;0.67;0.50;;;;;;;3.61;54.08;98277.55;1690050;83;21081;-72
2021/11/30 07:58:35;;;;;;;1.20;0.80;;;;;;;3.64;53.98;98286.39;1668719;84;21532;-70
2021/11/30 08:01:02;;;;;;;1.63;1.00;;;;;;;3.65;54.17;98277.98;1689035;83;21053;-72
2021/11/30 08:03:28;;;;;;;;;;;;;;;3.63;54.36;98276.84;1655722;84;21560;-71
2021/11/30 08:05:56;;;;;;;2.63;0.80;;;;;;;3.65;54.62;98286.69;1668326;84;20152;-74
2021/11/30 08:08:22;;;;;;;6.87;4.60;;;;;;;3.65;54.72;98284.05;1681860;84;21134;-71
2021/11/30 08:10:49;;;;;;;;;;;;;;;3.65;54.50;98291.95;1679213;84;21037;-70
2021/11/30 08:13:15;;;;;;;7.70;3.43;;;;;;;3.68;54.90;98296.05;1657790;84;20168;-71
2021/11/30 08:15:42;;;;;;;1.70;1.47;;;;;;;3.67;55.38;98300.99;1651731;85;21097;-70
2021/11/30 08:18:08;;;;;;;3.42;1.80;;;;;;;3.64;55.00;98282.44;1653293;85;21118;-71
2021/11/30 08:20:35;;;;;;;1.87;1.27;;;;;;;3.67;55.16;98311.05;1632784;86;21076;-72
2021/11/30 08:23:04;;;;;;;1.30;1.20;;;;;;;3.66;55.45;98308.09;1662008;85;21018;-71
2021/11/30 08:25:30;;;;;;;1.40;1.30;;;;;;;3.69;55.85;98297.17;1685054;83;21059;-72
2021/11/30 08:27:57;;;;;;;17.55;9.38;;;;;;;3.72;55.55;98295.16;1692714;83;21043;-72
2021/11/30 08:30:23;;;;;;;;;;;;;;;3.73;55.66;98293.65;1694556;83;20990;-70
2021/11/30 08:32:50;;;;;;;11.73;6.37;;;;;;;3.73;55.74;98292.33;1693219;83;20125;-71
2021/11/30 08:35:17;;;;;;;4.20;2.67;;;;;;;3.71;55.92;98283.78;1693529;82;21006;-72
2021/11/30 08:37:44;;;;;;;4.13;1.67;;;;;;;3.74;55.97;98284.72;1692359;83;21089;-72
2021/11/30 08:40:12;;;;;;;3.10;1.50;;;;;;;3.74;55.85;98287.87;1689368;83;21057;-73
2021/11/30 08:42:41;;;;;;;2.17;1.70;;;;;;;3.74;56.15;98285.23;1662552;85;21057;-70
2021/11/30 08:45:09;;;;;;;3.93;2.00;;;;;;;3.73;56.28;98292.33;1682994;83;21035;-75
2021/11/30 08:47:37;;;;;;;2.80;2.43;;;;;;;3.77;56.34;98301.95;1683110;83;21047;-71
2021/11/30 08:50:13;;;;;;;3.03;1.83;;;;;;;3.82;56.69;98313.53;1679470;83;21049;-70
2021/11/30 08:52:40;;;;;;;9.97;2.90;;;;;;;3.88;56.58;98311.95;1689808;83;21618;-72
2021/11/30 08:55:08;;;;;;;4.73;3.30;;;;;;;3.92;56.64;98301.83;1688345;82;21062;-74
2021/11/30 08:57:35;;;;;;;3.20;2.43;;;;;;;3.94;56.45;98286.15;1690691;83;21019;-73
2021/11/30 09:00:07;;;;;;;3.70;2.50;;;;;;;3.97;56.23;98300.23;1704043;83;21094;-72
2021/11/30 09:02:35;;;;;;;3.40;2.97;;;;;;;4.01;56.45;98301.50;1690730;83;21528;-72
2021/11/30 09:05:05;;;;;;;4.97;2.47;;;;;;;4.07;56.36;98294.63;1665794;84;21078;-72
2021/11/30 09:07:32;;;;;;;2.67;1.93;;;;;;;4.09;55.56;98300.52;1699198;83;21021;-72
2021/11/30 09:10:00;;;;;;;5.43;4.57;;;;;;;4.06;55.05;98300.38;1694101;83;21030;-72
2021/11/30 09:12:26;;;;;;;7.10;3.77;;;;;;;4.02;54.88;98301.79;1664404;85;21165;-71
2021/11/30 09:14:53;;;;;;;3.40;2.50;;;;;;;3.99;55.16;98292.14;1692681;83;21046;-70
2021/11/30 09:17:22;;;;;;;2.80;1.70;;;;;;;3.96;54.83;98280.17;1692176;83;21480;-72
2021/11/30 09:19:49;;;;;;;2.40;1.60;;;;;;;3.93;54.85;98286.34;1663663;84;21526;-74
2021/11/30 09:22:17;;;;;;;2.73;2.00;;;;;;;3.89;54.91;98275.38;1650469;85;21795;-78
2021/11/30 09:24:43;;;;;;;4.33;2.47;;;;;;;3.87;55.17;98275.56;1642408;85;21006;-69
2021/11/30 09:27:10;;;;;;;;;;;;;;;3.88;55.64;98285.11;1690059;84;20991;-72
2021/11/30 09:29:37;;;;;;;3.10;2.50;;;;;;;3.93;55.76;98279.23;1685617;84;20213;-76
2021/11/30 09:32:04;;;;;;;;;;;;;;;3.73;56.13;98264.66;1687376;84;20978;-71
2021/11/30 09:34:30;;;;;;;10.03;5.80;;;;;;;3.90;56.46;98280.97;1683311;84;20147;-70
2021/11/30 09:36:57;;;;;;;;;;;;;;;3.85;56.53;98267.55;1668149;84;21081;-74
2021/11/30 09:39:24;;;;;;;5.37;3.93;;;;;;;3.86;57.04;98264.73;1664101;84;20210;-73
2021/11/30 09:41:51;;;;;;;8.47;4.07;;;;;;;3.82;56.96;98285.06;1667962;84;21014;-82
2021/11/30 09:44:17;;;;;;;7.23;3.73;;;;;;;3.85;56.83;98282.05;1662754;83;21343;-81
2021/11/30 09:46:44;;;;;;;7.30;3.80;;;;;;;3.86;56.98;98288.93;1669747;83;21012;-69
2021/11/30 09:49:13;;;;;;;6.63;4.03;;;;;;;3.88;56.89;98291.70;1638823;86;21040;-72
2021/11/30 09:51:40;;;;;;;5.17;3.70;;;;;;;3.90;56.99;98291.51;1661059;85;21028;-70
2021/11/30 09:54:07;;;;;;;4.17;3.73;;;;;;;3.90;56.91;98279.65;1661015;85;21120;-70
2021/11/30 09:56:34;;;;;;;4.53;3.03;;;;;;;3.90;57.06;98269.91;1656869;82;21595;-70
2021/11/30 09:59:00;;;;;;;;;;;;;;;3.94;56.19;98274.77;1661243;84;21032;-71
2021/11/30 10:01:27;;;;;;;6.37;2.80;;;;;;;3.95;55.95;98275.90;1659598;83;20110;-72
2021/11/30 10:03:53;;;;;;;7.05;3.10;;;;;;;3.87;56.09;98274.24;1662207;83;21139;-71
2021/11/30 10:06:20;;;;;;;3.53;3.23;;;;;;;3.85;56.32;98272.31;1670533;83;21065;-72
2021/11/30 10:08:54;;;;;;;3.40;2.98;;;;;;;3.83;55.83;98274.84;1652818;84;21150;-69
2021/11/30 10:11:34;;;;;;;5.57;2.70;;;;;;;3.81;55.72;98271.08;1669224;82;21051;-72
2021/11/30 10:14:27;;;;;;;2.07;1.80;;;;;;;3.80;55.91;98266.00;1703217;82;21037;-82
2021/11/30 10:17:23;;;;;;;2.27;2.07;;;;;;;3.82;55.52;98260.02;1699860;82;21101;-71
2021/11/30 10:20:00;;;;;;;3.50;1.73;;;;;;;3.79;55.53;98266.52;1697348;82;21064;-72
2021/11/30 10:22:42;;;;;;;2.30;2.00;;;;;;;3.74;55.47;98267.59;1688033;82;21954;-75
2021/11/30 10:25:28;;;;;;;3.93;1.73;;;;;;;3.75;55.73;98264.45;1677248;83;21011;-70
2021/11/30 10:28:02;;;;;;;3.30;2.10;;;;;;;3.75;55.33;98259.17;1684629;83;21034;-73
2021/11/30 10:30:32;;;;;;;1.93;1.13;;;;;;;3.72;55.50;98291.20;1685112;83;21050;-78
2021/11/30 10:33:09;;;;;;;3.13;1.90;;;;;;;3.72;55.61;98289.89;1682708;83;21040;-70
2021/11/30 10:35:37;;;;;;;2.00;1.42;;;;;;;3.74;55.53;98282.09;1683439;83;21018;-69
2021/11/30 10:38:05;;;;;;;1.73;1.60;;;;;;;3.77;55.46;98288.30;1685030;83;21013;-70
2021/11/30 10:40:36;;;;;;;1.63;1.53;;;;;;;3.81;55.23;98282.13;1655180;83;21111;-70
2021/11/30 10:43:10;;;;;;;3.47;2.13;;;;;;;3.82;54.96;98294.28;1685013;83;21026;-71
2021/11/30 10:45:44;;;;;;;2.37;2.17;;;;;;;3.83;54.72;98298.56;1673197;83;20995;-73
2021/11/30 10:48:15;;;;;;;3.23;2.70;;;;;;;3.84;54.73;98297.05;1661107;84;22073;-72
2021/11/30 10:50:52;;;;;;;2.27;1.70;;;;;;;3.85;54.80;98316.31;1657818;84;21018;-71
2021/11/30 10:53:27;;;;;;;2.77;1.43;;;;;;;3.86;54.67;98312.65;1668600;84;22067;-69
2021/11/30 10:56:01;;;;;;;1.50;1.40;;;;;;;3.86;54.68;98312.65;1668229;84;21063;-72
2021/11/30 10:58:32;;;;;;;1.67;1.30;;;;;;;3.85;54.99;98317.11;1662334;85;21556;-72
2021/11/30 11:01:01;;;;;;;3.27;1.83;;;;;;;3.89;55.04;98314.91;1680823;84;21069;-71
2021/11/30 11:03:28;;;;;;;2.30;1.77;;;;;;;3.88;54.97;98315.90;1683732;84;21505;-71
2021/11/30 11:08:48;;;;;;;2.00;1.37;;;;;;;3.87;55.25;98321.69;1669641;84;21059;-70
2021/11/30 11:11:22;;;;;;;2.17;1.70;;;;;;;3.88;55.29;98315.42;1682948;82;21030;-72
2021/11/30 11:13:49;;;;;;;5.10;3.10;;;;;;;3.89;55.46;98322.30;1658732;85;20999;-71
2021/11/30 11:16:33;;;;;;;4.33;3.60;;;;;;;3.90;55.76;98323.14;1660139;85;21033;-71
2021/11/30 11:19:05;;;;;;;6.37;3.77;;;;;;;3.88;55.94;98322.01;1614837;88;21057;-74
2021/11/30 11:21:36;;;;;;;5.50;2.97;;;;;;;3.84;56.20;98315.98;1638492;85;21124;-71
2021/11/30 11:24:22;;;;;;;8.67;3.80;;;;;;;3.85;56.21;98324.22;1683424;83;20984;-70
2021/11/30 11:26:53;;;;;;;8.43;3.50;;;;;;;3.83;56.21;98322.28;1694922;83;21520;-74
2021/11/30 11:29:25;;;;;;;6.50;4.07;;;;;;;3.47;56.36;98279.81;1678170;83;21076;-71
2021/11/30 11:31:58;;;;;;;5.47;3.37;;;;;;;3.83;56.48;98331.50;1676593;83;21074;-70
2021/11/30 11:34:29;;;;;;;7.30;3.20;;;;;;;3.87;56.89;98331.42;1648804;85;21151;-70
2021/11/30 11:36:58;;;;;;;4.97;3.00;;;;;;;3.87;56.89;98310.34;1643084;85;21080;-83
2021/11/30 11:39:29;;;;;;;6.70;2.80;;;;;;;3.82;56.41;98318.81;1618547;87;21267;-70
2021/11/30 11:42:04;;;;;;;4.27;1.97;;;;;;;3.75;56.18;98321.10;1616664;87;21102;-72
2021/11/30 11:44:32;;;;;;;4.63;2.90;;;;;;;3.76;56.19;98331.97;1645434;85;21053;-71
2021/11/30 11:47:07;;;;;;;5.17;2.20;;;;;;;3.74;56.26;98332.66;1640650;86;21054;-71
2021/11/30 11:49:37;;;;;;;3.20;2.37;;;;;;;3.72;56.24;98325.45;1675798;84;21559;-71
2021/11/30 11:52:06;;;;;;;3.77;2.53;;;;;;;3.72;56.33;98328.09;1619017;86;21171;-71
2021/11/30 11:54:36;;;;;;;3.40;2.87;;;;;;;3.72;56.32;98334.68;1678726;84;21064;-70
2021/11/30 11:57:08;;;;;;;3.57;2.50;;;;;;;3.70;56.41;98337.50;1703326;82;20958;-72
2021/11/30 11:59:41;;;;;;;3.53;2.20;;;;;;;3.69;56.60;98338.02;1700584;82;21507;-74
2021/11/30 12:02:28;;;;;;;6.80;1.80;;;;;;;3.71;56.48;98333.84;1683340;82;21037;-74
2021/11/30 12:05:04;;;;;;;4.95;2.40;;;;;;;3.68;56.62;98340.84;1666636;84;21146;-71
2021/11/30 12:08:01;;;;;;;4.00;2.63;;;;;;;3.68;56.79;98345.59;1679968;84;21549;-72
2021/11/30 12:10:32;;;;;;;2.80;2.42;;;;;;;3.69;56.73;98348.55;1673185;84;21011;-71